sensor_id;sensor_type;location;lat;lon;timestamp;temperature;humidity
20866;DHT22;10593;48.398;10.698;2023-03-19T00:00:16;12.60;46.90
20866;DHT22;10593;48.398;10.698;2023-03-19T00:02:42;12.60;47.00
20866;DHT22;10593;48.398;10.698;2023-03-19T00:05:14;12.60;47.10
20866;DHT22;10593;48.398;10.698;2023-03-19T00:07:40;12.50;47.00
20866;DHT22;10593;48.398;10.698;2023-03-19T00:10:06;12.50;47.10
20866;DHT22;10593;48.398;10.698;2023-03-19T00:12:31;12.50;47.20
20866;DHT22;10593;48.398;10.698;2023-03-19T00:14:57;12.50;47.30
20866;DHT22;10593;48.398;10.698;2023-03-19T00:17:23;12.50;47.30
20866;DHT22;10593;48.398;10.698;2023-03-19T00:19:48;12.50;47.30
20866;DHT22;10593;48.398;10.698;2023-03-19T00:22:14;12.50;47.50
20866;DHT22;10593;48.398;10.698;2023-03-19T00:24:40;12.50;47.50
20866;DHT22;10593;48.398;10.698;2023-03-19T00:27:06;12.50;47.60
20866;DHT22;10593;48.398;10.698;2023-03-19T00:29:32;12.50;47.60
20866;DHT22;10593;48.398;10.698;2023-03-19T00:31:58;12.50;47.60
20866;DHT22;10593;48.398;10.698;2023-03-19T00:34:23;12.50;47.70
20866;DHT22;10593;48.398;10.698;2023-03-19T00:36:49;12.50;47.70
20866;DHT22;10593;48.398;10.698;2023-03-19T00:39:15;12.50;47.80
20866;DHT22;10593;48.398;10.698;2023-03-19T00:41:40;12.50;47.90
20866;DHT22;10593;48.398;10.698;2023-03-19T00:44:06;12.50;48.00
20866;DHT22;10593;48.398;10.698;2023-03-19T00:46:32;12.50;48.10
20866;DHT22;10593;48.398;10.698;2023-03-19T00:48:58;12.50;48.20
20866;DHT22;10593;48.398;10.698;2023-03-19T00:51:24;12.50;48.10
20866;DHT22;10593;48.398;10.698;2023-03-19T00:53:50;12.50;47.90
20866;DHT22;10593;48.398;10.698;2023-03-19T00:56:17;12.50;47.90
20866;DHT22;10593;48.398;10.698;2023-03-19T00:58:44;12.40;47.80
20866;DHT22;10593;48.398;10.698;2023-03-19T01:01:12;12.40;47.70
20866;DHT22;10593;48.398;10.698;2023-03-19T01:03:40;12.40;47.60
20866;DHT22;10593;48.398;10.698;2023-03-19T01:06:06;12.40;47.60
20866;DHT22;10593;48.398;10.698;2023-03-19T01:08:32;12.30;47.70
20866;DHT22;10593;48.398;10.698;2023-03-19T01:11:08;12.30;47.90
20866;DHT22;10593;48.398;10.698;2023-03-19T01:13:37;12.30;48.10
20866;DHT22;10593;48.398;10.698;2023-03-19T01:16:03;12.30;47.90
20866;DHT22;10593;48.398;10.698;2023-03-19T01:18:29;12.20;48.00
20866;DHT22;10593;48.398;10.698;2023-03-19T01:20:55;12.20;48.20
20866;DHT22;10593;48.398;10.698;2023-03-19T01:23:21;12.20;48.20
20866;DHT22;10593;48.398;10.698;2023-03-19T01:25:47;12.10;48.20
20866;DHT22;10593;48.398;10.698;2023-03-19T01:28:12;12.20;48.30
20866;DHT22;10593;48.398;10.698;2023-03-19T01:30:38;12.20;48.40
20866;DHT22;10593;48.398;10.698;2023-03-19T01:33:05;12.20;48.60
20866;DHT22;10593;48.398;10.698;2023-03-19T01:35:31;12.10;48.60
20866;DHT22;10593;48.398;10.698;2023-03-19T01:37:57;12.10;48.70
20866;DHT22;10593;48.398;10.698;2023-03-19T01:40:22;12.20;48.80
20866;DHT22;10593;48.398;10.698;2023-03-19T01:43:16;12.10;48.80
20866;DHT22;10593;48.398;10.698;2023-03-19T01:45:45;12.20;49.00
20866;DHT22;10593;48.398;10.698;2023-03-19T01:51:15;12.20;49.00
20866;DHT22;10593;48.398;10.698;2023-03-19T01:53:47;12.10;48.80
20866;DHT22;10593;48.398;10.698;2023-03-19T01:56:21;12.20;48.80
20866;DHT22;10593;48.398;10.698;2023-03-19T01:58:49;12.20;48.90
20866;DHT22;10593;48.398;10.698;2023-03-19T02:01:17;12.20;49.00
20866;DHT22;10593;48.398;10.698;2023-03-19T02:03:45;12.20;49.10
20866;DHT22;10593;48.398;10.698;2023-03-19T02:06:11;12.10;49.00
20866;DHT22;10593;48.398;10.698;2023-03-19T02:08:38;12.10;49.00
20866;DHT22;10593;48.398;10.698;2023-03-19T02:11:05;12.10;49.10
20866;DHT22;10593;48.398;10.698;2023-03-19T02:13:32;12.10;49.20
20866;DHT22;10593;48.398;10.698;2023-03-19T02:15:58;12.10;49.30
20866;DHT22;10593;48.398;10.698;2023-03-19T02:18:25;12.10;49.30
20866;DHT22;10593;48.398;10.698;2023-03-19T02:23:50;12.10;49.60
20866;DHT22;10593;48.398;10.698;2023-03-19T02:26:25;12.00;49.30
20866;DHT22;10593;48.398;10.698;2023-03-19T02:28:53;12.00;49.40
20866;DHT22;10593;48.398;10.698;2023-03-19T02:31:19;12.00;49.30
20866;DHT22;10593;48.398;10.698;2023-03-19T02:33:59;12.00;49.30
20866;DHT22;10593;48.398;10.698;2023-03-19T02:36:41;12.00;49.30
20866;DHT22;10593;48.398;10.698;2023-03-19T02:39:32;11.90;49.20
20866;DHT22;10593;48.398;10.698;2023-03-19T02:42:01;11.90;49.20
20866;DHT22;10593;48.398;10.698;2023-03-19T02:44:28;11.90;49.20
20866;DHT22;10593;48.398;10.698;2023-03-19T02:46:54;11.90;49.20
20866;DHT22;10593;48.398;10.698;2023-03-19T02:49:19;11.90;49.20
20866;DHT22;10593;48.398;10.698;2023-03-19T02:51:45;11.90;49.30
20866;DHT22;10593;48.398;10.698;2023-03-19T02:54:11;11.80;49.30
20866;DHT22;10593;48.398;10.698;2023-03-19T02:56:36;11.80;49.30
20866;DHT22;10593;48.398;10.698;2023-03-19T02:59:02;11.80;49.90
20866;DHT22;10593;48.398;10.698;2023-03-19T03:01:28;11.80;49.40
20866;DHT22;10593;48.398;10.698;2023-03-19T03:03:54;11.70;49.80
20866;DHT22;10593;48.398;10.698;2023-03-19T03:06:20;11.80;49.40
20866;DHT22;10593;48.398;10.698;2023-03-19T03:08:45;11.80;49.40
20866;DHT22;10593;48.398;10.698;2023-03-19T03:11:11;11.80;49.40
20866;DHT22;10593;48.398;10.698;2023-03-19T03:13:37;11.80;49.40
20866;DHT22;10593;48.398;10.698;2023-03-19T03:16:02;11.80;49.40
20866;DHT22;10593;48.398;10.698;2023-03-19T03:18:28;11.70;49.30
20866;DHT22;10593;48.398;10.698;2023-03-19T03:20:54;11.80;49.40
20866;DHT22;10593;48.398;10.698;2023-03-19T03:23:20;11.80;49.40
20866;DHT22;10593;48.398;10.698;2023-03-19T03:25:50;11.70;49.40
20866;DHT22;10593;48.398;10.698;2023-03-19T03:28:16;11.70;49.60
20866;DHT22;10593;48.398;10.698;2023-03-19T03:30:43;11.70;49.50
20866;DHT22;10593;48.398;10.698;2023-03-19T03:33:10;11.80;49.70
20866;DHT22;10593;48.398;10.698;2023-03-19T03:35:36;11.80;49.80
20866;DHT22;10593;48.398;10.698;2023-03-19T03:38:02;11.80;49.90
20866;DHT22;10593;48.398;10.698;2023-03-19T03:40:29;11.80;50.00
20866;DHT22;10593;48.398;10.698;2023-03-19T03:42:55;11.80;50.10
20866;DHT22;10593;48.398;10.698;2023-03-19T03:45:21;11.80;50.20
20866;DHT22;10593;48.398;10.698;2023-03-19T03:47:47;11.80;50.30
20866;DHT22;10593;48.398;10.698;2023-03-19T03:50:12;11.80;50.30
20866;DHT22;10593;48.398;10.698;2023-03-19T03:52:39;11.80;50.30
20866;DHT22;10593;48.398;10.698;2023-03-19T03:55:05;11.80;50.30
20866;DHT22;10593;48.398;10.698;2023-03-19T03:57:32;11.80;50.50
20866;DHT22;10593;48.398;10.698;2023-03-19T03:59:57;11.80;50.60
20866;DHT22;10593;48.398;10.698;2023-03-19T04:02:23;11.80;50.60
20866;DHT22;10593;48.398;10.698;2023-03-19T04:04:49;11.70;50.60
20866;DHT22;10593;48.398;10.698;2023-03-19T04:07:16;11.70;50.60
20866;DHT22;10593;48.398;10.698;2023-03-19T04:09:41;11.70;50.60
20866;DHT22;10593;48.398;10.698;2023-03-19T04:12:07;11.70;50.70
20866;DHT22;10593;48.398;10.698;2023-03-19T04:14:33;11.70;50.70
20866;DHT22;10593;48.398;10.698;2023-03-19T04:16:59;11.70;50.70
20866;DHT22;10593;48.398;10.698;2023-03-19T04:19:25;11.70;50.80
20866;DHT22;10593;48.398;10.698;2023-03-19T04:21:51;11.70;50.80
20866;DHT22;10593;48.398;10.698;2023-03-19T04:24:17;11.70;50.90
20866;DHT22;10593;48.398;10.698;2023-03-19T04:26:42;11.70;50.90
20866;DHT22;10593;48.398;10.698;2023-03-19T04:29:08;11.70;50.90
20866;DHT22;10593;48.398;10.698;2023-03-19T04:31:34;11.70;51.00
20866;DHT22;10593;48.398;10.698;2023-03-19T04:33:59;11.70;51.00
20866;DHT22;10593;48.398;10.698;2023-03-19T04:36:25;11.70;51.10
20866;DHT22;10593;48.398;10.698;2023-03-19T04:38:51;11.70;51.20
20866;DHT22;10593;48.398;10.698;2023-03-19T04:41:17;11.70;51.30
20866;DHT22;10593;48.398;10.698;2023-03-19T04:43:42;11.70;51.30
20866;DHT22;10593;48.398;10.698;2023-03-19T04:46:08;11.70;51.40
20866;DHT22;10593;48.398;10.698;2023-03-19T04:48:34;11.70;51.50
20866;DHT22;10593;48.398;10.698;2023-03-19T04:51:01;11.60;51.40
20866;DHT22;10593;48.398;10.698;2023-03-19T04:53:28;11.70;51.60
20866;DHT22;10593;48.398;10.698;2023-03-19T04:55:54;11.70;51.60
20866;DHT22;10593;48.398;10.698;2023-03-19T04:58:21;11.70;51.60
20866;DHT22;10593;48.398;10.698;2023-03-19T05:00:47;11.70;51.80
20866;DHT22;10593;48.398;10.698;2023-03-19T05:03:14;11.60;51.80
20866;DHT22;10593;48.398;10.698;2023-03-19T05:05:40;11.70;51.90
20866;DHT22;10593;48.398;10.698;2023-03-19T05:08:06;11.70;51.90
20866;DHT22;10593;48.398;10.698;2023-03-19T05:10:34;11.60;51.80
20866;DHT22;10593;48.398;10.698;2023-03-19T05:13:01;11.60;51.80
20866;DHT22;10593;48.398;10.698;2023-03-19T05:15:26;11.60;51.80
20866;DHT22;10593;48.398;10.698;2023-03-19T05:17:52;11.60;51.80
20866;DHT22;10593;48.398;10.698;2023-03-19T05:20:18;11.60;51.90
20866;DHT22;10593;48.398;10.698;2023-03-19T05:22:44;11.60;51.80
20866;DHT22;10593;48.398;10.698;2023-03-19T05:25:13;11.60;51.90
20866;DHT22;10593;48.398;10.698;2023-03-19T05:27:39;11.60;51.90
20866;DHT22;10593;48.398;10.698;2023-03-19T05:30:06;11.60;51.90
20866;DHT22;10593;48.398;10.698;2023-03-19T05:32:32;11.60;52.10
20866;DHT22;10593;48.398;10.698;2023-03-19T05:34:58;11.60;52.10
20866;DHT22;10593;48.398;10.698;2023-03-19T05:37:24;11.60;52.10
20866;DHT22;10593;48.398;10.698;2023-03-19T05:39:50;11.60;52.10
20866;DHT22;10593;48.398;10.698;2023-03-19T05:42:16;11.60;52.20
20866;DHT22;10593;48.398;10.698;2023-03-19T05:44:42;11.60;52.20
20866;DHT22;10593;48.398;10.698;2023-03-19T05:47:09;11.60;52.20
20866;DHT22;10593;48.398;10.698;2023-03-19T05:49:35;11.60;52.40
20866;DHT22;10593;48.398;10.698;2023-03-19T05:52:01;11.60;52.40
20866;DHT22;10593;48.398;10.698;2023-03-19T05:54:27;11.60;52.50
20866;DHT22;10593;48.398;10.698;2023-03-19T05:56:53;11.60;52.50
20866;DHT22;10593;48.398;10.698;2023-03-19T05:59:19;11.60;52.50
20866;DHT22;10593;48.398;10.698;2023-03-19T06:01:44;11.60;52.50
20866;DHT22;10593;48.398;10.698;2023-03-19T06:04:10;11.70;52.70
20866;DHT22;10593;48.398;10.698;2023-03-19T06:06:36;11.70;52.80
20866;DHT22;10593;48.398;10.698;2023-03-19T06:09:02;11.70;52.80
20866;DHT22;10593;48.398;10.698;2023-03-19T06:11:27;11.70;52.90
20866;DHT22;10593;48.398;10.698;2023-03-19T06:13:53;11.70;52.90
20866;DHT22;10593;48.398;10.698;2023-03-19T06:16:19;11.70;53.00
20866;DHT22;10593;48.398;10.698;2023-03-19T06:18:45;11.70;53.00
20866;DHT22;10593;48.398;10.698;2023-03-19T06:21:11;11.70;53.10
20866;DHT22;10593;48.398;10.698;2023-03-19T06:23:37;11.70;53.20
20866;DHT22;10593;48.398;10.698;2023-03-19T06:26:03;11.70;53.20
20866;DHT22;10593;48.398;10.698;2023-03-19T06:28:30;11.70;53.10
20866;DHT22;10593;48.398;10.698;2023-03-19T06:30:57;11.70;53.10
20866;DHT22;10593;48.398;10.698;2023-03-19T06:33:23;11.70;53.20
20866;DHT22;10593;48.398;10.698;2023-03-19T06:35:52;11.70;53.20
20866;DHT22;10593;48.398;10.698;2023-03-19T06:38:18;11.70;53.20
20866;DHT22;10593;48.398;10.698;2023-03-19T06:40:43;11.70;53.30
20866;DHT22;10593;48.398;10.698;2023-03-19T06:43:09;11.70;53.30
20866;DHT22;10593;48.398;10.698;2023-03-19T06:45:35;11.70;53.40
20866;DHT22;10593;48.398;10.698;2023-03-19T06:48:00;11.70;53.60
20866;DHT22;10593;48.398;10.698;2023-03-19T06:50:26;11.70;53.70
20866;DHT22;10593;48.398;10.698;2023-03-19T06:52:52;11.70;53.70
20866;DHT22;10593;48.398;10.698;2023-03-19T06:55:17;11.70;53.70
20866;DHT22;10593;48.398;10.698;2023-03-19T06:57:47;11.70;53.90
20866;DHT22;10593;48.398;10.698;2023-03-19T07:00:15;11.70;54.00
20866;DHT22;10593;48.398;10.698;2023-03-19T07:02:42;11.70;54.00
20866;DHT22;10593;48.398;10.698;2023-03-19T07:05:08;11.70;54.10
20866;DHT22;10593;48.398;10.698;2023-03-19T07:07:34;11.70;54.30
20866;DHT22;10593;48.398;10.698;2023-03-19T07:10:00;11.70;54.40
20866;DHT22;10593;48.398;10.698;2023-03-19T07:12:26;11.80;54.50
20866;DHT22;10593;48.398;10.698;2023-03-19T07:14:53;11.80;54.60
20866;DHT22;10593;48.398;10.698;2023-03-19T07:17:23;11.80;54.60
20866;DHT22;10593;48.398;10.698;2023-03-19T07:19:49;11.80;54.80
20866;DHT22;10593;48.398;10.698;2023-03-19T07:22:15;11.90;54.90
20866;DHT22;10593;48.398;10.698;2023-03-19T07:24:42;11.90;54.90
20866;DHT22;10593;48.398;10.698;2023-03-19T07:27:08;11.90;55.00
20866;DHT22;10593;48.398;10.698;2023-03-19T07:29:34;11.90;55.20
20866;DHT22;10593;48.398;10.698;2023-03-19T07:31:59;11.90;55.10
20866;DHT22;10593;48.398;10.698;2023-03-19T07:34:25;11.90;55.10
20866;DHT22;10593;48.398;10.698;2023-03-19T07:36:51;11.90;55.30
20866;DHT22;10593;48.398;10.698;2023-03-19T07:39:17;12.00;55.40
20866;DHT22;10593;48.398;10.698;2023-03-19T07:41:43;11.90;55.40
20866;DHT22;10593;48.398;10.698;2023-03-19T07:44:12;12.00;55.60
20866;DHT22;10593;48.398;10.698;2023-03-19T07:46:37;12.00;55.70
20866;DHT22;10593;48.398;10.698;2023-03-19T07:49:03;12.00;55.70
20866;DHT22;10593;48.398;10.698;2023-03-19T07:51:29;12.00;55.70
20866;DHT22;10593;48.398;10.698;2023-03-19T07:53:54;12.00;55.60
20866;DHT22;10593;48.398;10.698;2023-03-19T07:56:20;12.10;55.80
20866;DHT22;10593;48.398;10.698;2023-03-19T07:58:46;12.10;55.80
20866;DHT22;10593;48.398;10.698;2023-03-19T08:01:11;12.00;55.70
20866;DHT22;10593;48.398;10.698;2023-03-19T08:03:37;12.10;55.90
20866;DHT22;10593;48.398;10.698;2023-03-19T08:06:03;12.10;56.00
20866;DHT22;10593;48.398;10.698;2023-03-19T08:08:30;12.10;56.20
20866;DHT22;10593;48.398;10.698;2023-03-19T08:10:56;12.10;56.30
20866;DHT22;10593;48.398;10.698;2023-03-19T08:13:21;12.10;56.30
20866;DHT22;10593;48.398;10.698;2023-03-19T08:15:48;12.10;56.30
20866;DHT22;10593;48.398;10.698;2023-03-19T08:18:15;12.20;56.40
20866;DHT22;10593;48.398;10.698;2023-03-19T08:20:41;12.20;56.40
20866;DHT22;10593;48.398;10.698;2023-03-19T08:23:08;12.20;56.40
20866;DHT22;10593;48.398;10.698;2023-03-19T08:25:34;12.20;56.40
20866;DHT22;10593;48.398;10.698;2023-03-19T08:28:00;12.20;56.50
20866;DHT22;10593;48.398;10.698;2023-03-19T08:30:26;12.20;56.60
20866;DHT22;10593;48.398;10.698;2023-03-19T08:32:52;12.20;56.80
20866;DHT22;10593;48.398;10.698;2023-03-19T08:35:18;12.20;56.90
20866;DHT22;10593;48.398;10.698;2023-03-19T08:37:44;12.30;57.10
20866;DHT22;10593;48.398;10.698;2023-03-19T08:40:10;12.30;57.20
20866;DHT22;10593;48.398;10.698;2023-03-19T08:42:36;12.30;57.30
20866;DHT22;10593;48.398;10.698;2023-03-19T08:45:08;12.30;57.60
20866;DHT22;10593;48.398;10.698;2023-03-19T08:47:36;12.30;57.50
20866;DHT22;10593;48.398;10.698;2023-03-19T08:50:03;12.40;57.60
20866;DHT22;10593;48.398;10.698;2023-03-19T08:52:29;12.40;57.80
20866;DHT22;10593;48.398;10.698;2023-03-19T08:54:55;12.40;58.00
20866;DHT22;10593;48.398;10.698;2023-03-19T08:57:21;12.40;58.40
20866;DHT22;10593;48.398;10.698;2023-03-19T08:59:46;12.40;58.50
20866;DHT22;10593;48.398;10.698;2023-03-19T09:02:12;12.50;58.70
20866;DHT22;10593;48.398;10.698;2023-03-19T09:04:42;12.50;58.80
20866;DHT22;10593;48.398;10.698;2023-03-19T09:07:08;12.60;59.10
20866;DHT22;10593;48.398;10.698;2023-03-19T09:09:42;12.60;59.00
20866;DHT22;10593;48.398;10.698;2023-03-19T09:12:11;12.70;59.30
20866;DHT22;10593;48.398;10.698;2023-03-19T09:14:39;12.70;59.40
20866;DHT22;10593;48.398;10.698;2023-03-19T09:17:05;12.70;59.30
20866;DHT22;10593;48.398;10.698;2023-03-19T09:19:32;12.70;59.20
20866;DHT22;10593;48.398;10.698;2023-03-19T09:21:58;12.80;59.20
20866;DHT22;10593;48.398;10.698;2023-03-19T09:24:24;12.80;59.20
20866;DHT22;10593;48.398;10.698;2023-03-19T09:26:51;12.90;59.20
20866;DHT22;10593;48.398;10.698;2023-03-19T09:29:17;12.90;59.00
20866;DHT22;10593;48.398;10.698;2023-03-19T09:31:43;13.00;58.80
20866;DHT22;10593;48.398;10.698;2023-03-19T09:34:09;13.00;58.70
20866;DHT22;10593;48.398;10.698;2023-03-19T09:36:35;13.00;58.70
20866;DHT22;10593;48.398;10.698;2023-03-19T09:39:03;13.10;58.80
20866;DHT22;10593;48.398;10.698;2023-03-19T09:42:00;13.10;58.60
20866;DHT22;10593;48.398;10.698;2023-03-19T09:44:51;13.20;58.60
20866;DHT22;10593;48.398;10.698;2023-03-19T09:49:52;13.20;58.40
20866;DHT22;10593;48.398;10.698;2023-03-19T09:52:40;13.30;58.20
20866;DHT22;10593;48.398;10.698;2023-03-19T09:57:56;13.40;57.90
20866;DHT22;10593;48.398;10.698;2023-03-19T10:00:24;13.40;57.60
20866;DHT22;10593;48.398;10.698;2023-03-19T10:02:59;13.40;57.70
20866;DHT22;10593;48.398;10.698;2023-03-19T10:12:09;13.50;57.50
20866;DHT22;10593;48.398;10.698;2023-03-19T10:15:09;13.50;57.50
20866;DHT22;10593;48.398;10.698;2023-03-19T10:18:00;13.60;57.30
20866;DHT22;10593;48.398;10.698;2023-03-19T10:20:50;13.60;57.50
20866;DHT22;10593;48.398;10.698;2023-03-19T10:26:12;13.70;56.90
20866;DHT22;10593;48.398;10.698;2023-03-19T10:28:43;13.70;57.00
20866;DHT22;10593;48.398;10.698;2023-03-19T10:31:24;13.80;56.90
20866;DHT22;10593;48.398;10.698;2023-03-19T10:36:42;13.80;56.20
20866;DHT22;10593;48.398;10.698;2023-03-19T10:39:08;13.90;56.10
20866;DHT22;10593;48.398;10.698;2023-03-19T10:41:48;13.90;55.80
20866;DHT22;10593;48.398;10.698;2023-03-19T10:44:34;13.90;55.60
20866;DHT22;10593;48.398;10.698;2023-03-19T10:47:11;14.00;55.70
20866;DHT22;10593;48.398;10.698;2023-03-19T10:49:38;14.00;55.60
20866;DHT22;10593;48.398;10.698;2023-03-19T10:52:27;14.00;55.50
20866;DHT22;10593;48.398;10.698;2023-03-19T10:55:14;14.00;55.60
20866;DHT22;10593;48.398;10.698;2023-03-19T10:57:44;14.10;55.80
20866;DHT22;10593;48.398;10.698;2023-03-19T11:00:23;14.10;55.60
20866;DHT22;10593;48.398;10.698;2023-03-19T11:02:54;14.20;55.70
20866;DHT22;10593;48.398;10.698;2023-03-19T11:08:01;14.20;55.90
20866;DHT22;10593;48.398;10.698;2023-03-19T11:10:31;14.30;56.20
20866;DHT22;10593;48.398;10.698;2023-03-19T11:13:05;14.30;56.00
20866;DHT22;10593;48.398;10.698;2023-03-19T11:15:41;14.30;55.70
20866;DHT22;10593;48.398;10.698;2023-03-19T11:18:19;14.40;55.50
20866;DHT22;10593;48.398;10.698;2023-03-19T11:20:52;14.40;55.00
20866;DHT22;10593;48.398;10.698;2023-03-19T11:23:26;14.40;54.90
20866;DHT22;10593;48.398;10.698;2023-03-19T11:25:55;14.50;55.00
20866;DHT22;10593;48.398;10.698;2023-03-19T11:28:25;14.50;55.10
20866;DHT22;10593;48.398;10.698;2023-03-19T11:37:01;14.60;55.20
20866;DHT22;10593;48.398;10.698;2023-03-19T11:39:41;14.70;55.70
20866;DHT22;10593;48.398;10.698;2023-03-19T12:12:45;15.20;54.90
20866;DHT22;10593;48.398;10.698;2023-03-19T12:15:37;15.20;54.90
20866;DHT22;10593;48.398;10.698;2023-03-19T12:21:21;15.30;54.40
20866;DHT22;10593;48.398;10.698;2023-03-19T12:24:11;15.30;54.10
20866;DHT22;10593;48.398;10.698;2023-03-19T12:35:39;15.50;54.00
20866;DHT22;10593;48.398;10.698;2023-03-19T12:38:19;15.50;53.80
20866;DHT22;10593;48.398;10.698;2023-03-19T12:41:01;15.50;53.50
20866;DHT22;10593;48.398;10.698;2023-03-19T12:43:34;15.60;53.50
20866;DHT22;10593;48.398;10.698;2023-03-19T12:46:21;15.70;53.40
20866;DHT22;10593;48.398;10.698;2023-03-19T12:48:54;15.70;53.50
20866;DHT22;10593;48.398;10.698;2023-03-19T12:51:35;15.70;53.40
20866;DHT22;10593;48.398;10.698;2023-03-19T12:54:09;15.80;53.10
20866;DHT22;10593;48.398;10.698;2023-03-19T12:59:49;15.90;52.00
20866;DHT22;10593;48.398;10.698;2023-03-19T13:02:49;15.90;51.60
20866;DHT22;10593;48.398;10.698;2023-03-19T13:11:16;16.00;51.70
20866;DHT22;10593;48.398;10.698;2023-03-19T13:14:00;16.00;51.30
20866;DHT22;10593;48.398;10.698;2023-03-19T13:22:18;16.10;50.80
20866;DHT22;10593;48.398;10.698;2023-03-19T13:24:46;16.10;51.00
20866;DHT22;10593;48.398;10.698;2023-03-19T13:27:22;16.10;51.30
20866;DHT22;10593;48.398;10.698;2023-03-19T13:32:50;16.10;50.50
20866;DHT22;10593;48.398;10.698;2023-03-19T13:35:39;16.20;50.40
20866;DHT22;10593;48.398;10.698;2023-03-19T13:38:25;16.20;50.20
20866;DHT22;10593;48.398;10.698;2023-03-19T13:40:57;16.20;50.10
20866;DHT22;10593;48.398;10.698;2023-03-19T13:48:49;16.20;50.20
20866;DHT22;10593;48.398;10.698;2023-03-19T13:57:04;16.30;49.20
20866;DHT22;10593;48.398;10.698;2023-03-19T13:59:40;16.30;49.70
20866;DHT22;10593;48.398;10.698;2023-03-19T14:05:06;16.30;49.70
20866;DHT22;10593;48.398;10.698;2023-03-19T14:07:46;16.30;49.50
20866;DHT22;10593;48.398;10.698;2023-03-19T14:10:23;16.30;49.40
20866;DHT22;10593;48.398;10.698;2023-03-19T14:13:01;16.40;49.50
20866;DHT22;10593;48.398;10.698;2023-03-19T14:15:31;16.30;48.90
20866;DHT22;10593;48.398;10.698;2023-03-19T14:18:04;16.40;49.20
20866;DHT22;10593;48.398;10.698;2023-03-19T14:20:43;16.40;48.80
20866;DHT22;10593;48.398;10.698;2023-03-19T14:23:27;16.40;48.50
20866;DHT22;10593;48.398;10.698;2023-03-19T14:31:30;16.50;48.20
20866;DHT22;10593;48.398;10.698;2023-03-19T14:39:58;16.50;47.70
20866;DHT22;10593;48.398;10.698;2023-03-19T14:45:39;16.60;47.30
20866;DHT22;10593;48.398;10.698;2023-03-19T14:51:21;16.60;46.70
20866;DHT22;10593;48.398;10.698;2023-03-19T14:54:20;16.60;46.50
20866;DHT22;10593;48.398;10.698;2023-03-19T14:56:55;16.60;46.50
20866;DHT22;10593;48.398;10.698;2023-03-19T14:59:22;16.70;46.60
20866;DHT22;10593;48.398;10.698;2023-03-19T15:01:50;16.70;46.60
20866;DHT22;10593;48.398;10.698;2023-03-19T15:04:20;16.70;46.30
20866;DHT22;10593;48.398;10.698;2023-03-19T15:06:58;16.70;45.50
20866;DHT22;10593;48.398;10.698;2023-03-19T15:09:30;16.70;44.80
20866;DHT22;10593;48.398;10.698;2023-03-19T15:17:44;16.80;45.10
20866;DHT22;10593;48.398;10.698;2023-03-19T15:20:16;16.80;45.50
20866;DHT22;10593;48.398;10.698;2023-03-19T15:22:45;16.80;45.30
20866;DHT22;10593;48.398;10.698;2023-03-19T15:25:24;16.80;45.70
20866;DHT22;10593;48.398;10.698;2023-03-19T15:28:11;16.80;45.50
20866;DHT22;10593;48.398;10.698;2023-03-19T15:30:38;16.80;45.40
20866;DHT22;10593;48.398;10.698;2023-03-19T15:33:16;16.90;45.80
20866;DHT22;10593;48.398;10.698;2023-03-19T15:35:53;16.90;45.50
20866;DHT22;10593;48.398;10.698;2023-03-19T15:38:30;16.90;45.60
20866;DHT22;10593;48.398;10.698;2023-03-19T15:41:03;16.90;45.30
20866;DHT22;10593;48.398;10.698;2023-03-19T15:43:33;16.90;45.10
20866;DHT22;10593;48.398;10.698;2023-03-19T15:46:01;16.90;45.20
20866;DHT22;10593;48.398;10.698;2023-03-19T15:48:47;16.90;45.20
20866;DHT22;10593;48.398;10.698;2023-03-19T15:51:18;16.90;45.20
20866;DHT22;10593;48.398;10.698;2023-03-19T15:53:46;16.90;45.10
20866;DHT22;10593;48.398;10.698;2023-03-19T15:56:14;16.90;45.10
20866;DHT22;10593;48.398;10.698;2023-03-19T15:58:45;16.90;45.20
20866;DHT22;10593;48.398;10.698;2023-03-19T16:01:14;16.90;45.30
20866;DHT22;10593;48.398;10.698;2023-03-19T16:06:24;16.80;45.10
20866;DHT22;10593;48.398;10.698;2023-03-19T16:08:54;16.80;45.30
20866;DHT22;10593;48.398;10.698;2023-03-19T16:11:37;16.80;45.30
20866;DHT22;10593;48.398;10.698;2023-03-19T16:14:39;16.80;45.00
20866;DHT22;10593;48.398;10.698;2023-03-19T16:17:12;16.80;44.70
20866;DHT22;10593;48.398;10.698;2023-03-19T16:19:55;16.80;45.10
20866;DHT22;10593;48.398;10.698;2023-03-19T16:22:30;16.70;45.10
20866;DHT22;10593;48.398;10.698;2023-03-19T16:24:57;16.70;45.30
20866;DHT22;10593;48.398;10.698;2023-03-19T16:27:39;16.70;45.60
20866;DHT22;10593;48.398;10.698;2023-03-19T16:33:02;16.60;45.40
20866;DHT22;10593;48.398;10.698;2023-03-19T16:35:31;16.60;45.40
20866;DHT22;10593;48.398;10.698;2023-03-19T16:40:48;16.60;46.00
20866;DHT22;10593;48.398;10.698;2023-03-19T16:43:21;16.60;46.40
20866;DHT22;10593;48.398;10.698;2023-03-19T16:46:03;16.60;47.70
20866;DHT22;10593;48.398;10.698;2023-03-19T16:48:32;16.50;48.10
20866;DHT22;10593;48.398;10.698;2023-03-19T16:50:58;16.50;48.20
20866;DHT22;10593;48.398;10.698;2023-03-19T16:53:27;16.40;48.40
20866;DHT22;10593;48.398;10.698;2023-03-19T16:55:56;16.40;49.20
20866;DHT22;10593;48.398;10.698;2023-03-19T16:58:36;16.30;48.90
20866;DHT22;10593;48.398;10.698;2023-03-19T17:01:16;16.20;49.20
20866;DHT22;10593;48.398;10.698;2023-03-19T17:03:44;16.20;49.30
20866;DHT22;10593;48.398;10.698;2023-03-19T17:06:12;16.10;49.20
20866;DHT22;10593;48.398;10.698;2023-03-19T17:08:39;16.10;49.40
20866;DHT22;10593;48.398;10.698;2023-03-19T17:11:06;16.00;49.50
20866;DHT22;10593;48.398;10.698;2023-03-19T17:13:36;16.00;49.50
20866;DHT22;10593;48.398;10.698;2023-03-19T17:16:06;16.00;49.70
20866;DHT22;10593;48.398;10.698;2023-03-19T17:18:34;15.90;49.70
20866;DHT22;10593;48.398;10.698;2023-03-19T17:21:24;16.00;49.80
20866;DHT22;10593;48.398;10.698;2023-03-19T17:23:52;15.90;49.60
20866;DHT22;10593;48.398;10.698;2023-03-19T17:26:23;15.90;49.80
20866;DHT22;10593;48.398;10.698;2023-03-19T17:28:51;15.90;49.80
20866;DHT22;10593;48.398;10.698;2023-03-19T17:31:24;15.90;49.90
20866;DHT22;10593;48.398;10.698;2023-03-19T17:34:19;15.90;50.10
20866;DHT22;10593;48.398;10.698;2023-03-19T17:36:50;15.80;50.10
20866;DHT22;10593;48.398;10.698;2023-03-19T17:39:27;15.80;50.10
20866;DHT22;10593;48.398;10.698;2023-03-19T17:41:54;15.80;50.20
20866;DHT22;10593;48.398;10.698;2023-03-19T17:44:20;15.80;50.20
20866;DHT22;10593;48.398;10.698;2023-03-19T17:46:49;15.80;50.30
20866;DHT22;10593;48.398;10.698;2023-03-19T17:49:26;15.80;50.30